Time;durP1;ratioP1;P1;durP2;ratioP2;P2;SDS_P1;SDS_P2;PMS_P1;PMS_P2;Temp;Humidity;BMP_temperature;BMP_pressure;BME280_temperature;BME280_humidity;BME280_pressure;Samples;Min_cycle;Max_cycle;Signal;HPM_P1;HPM_P2
2022/07/27 00:02:05;;;;;;;3.30;1.95;;;;;;;24.28;43.79;101968.41;5114505;27;20031;-71
2022/07/27 00:04:30;;;;;;;3.22;1.27;;;;;;;24.10;43.84;101960.75;5125809;27;20047;-71
2022/07/27 00:06:56;;;;;;;3.97;1.52;;;;;;;24.18;43.73;101958.00;5128177;27;20038;-71
2022/07/27 00:09:22;;;;;;;1.95;1.45;;;;;;;24.11;44.04;101960.59;5122645;27;20601;-71
2022/07/27 00:11:47;;;;;;;4.45;1.77;;;;;;;24.15;44.01;101960.22;5130856;27;20047;-71
2022/07/27 00:14:13;;;;;;;2.70;1.63;;;;;;;24.20;43.74;101960.50;5126665;27;20788;-71
2022/07/27 00:16:39;;;;;;;4.35;1.55;;;;;;;24.20;43.74;101958.66;5106058;27;20036;-71
2022/07/27 00:19:04;;;;;;;2.90;1.50;;;;;;;24.18;43.80;101952.69;5129275;27;20730;-71
2022/07/27 00:21:30;;;;;;;1.70;1.45;;;;;;;24.06;44.03;101962.97;5134901;27;20026;-71
2022/07/27 00:23:55;;;;;;;3.17;1.48;;;;;;;24.13;44.02;101963.06;5124855;27;20047;-71
2022/07/27 00:26:21;;;;;;;3.03;1.63;;;;;;;24.07;44.20;101959.28;5133755;27;20031;-71
2022/07/27 00:28:48;;;;;;;3.72;1.67;;;;;;;24.20;43.96;101966.63;5108939;27;20071;-71
2022/07/27 00:31:13;;;;;;;5.65;1.58;;;;;;;24.12;44.00;101961.41;5119403;27;20039;-71
2022/07/27 00:33:39;;;;;;;2.58;1.23;;;;;;;24.17;43.77;101967.00;5116574;27;20046;-71
2022/07/27 00:36:05;;;;;;;2.70;1.42;;;;;;;24.16;43.90;101965.34;5123757;27;20048;-71
2022/07/27 00:38:30;;;;;;;1.85;1.30;;;;;;;24.15;43.93;101969.03;5132211;27;20035;-71
2022/07/27 00:40:56;;;;;;;3.50;1.50;;;;;;;24.06;44.07;101965.63;5129904;27;20053;-71
2022/07/27 00:43:21;;;;;;;3.58;1.13;;;;;;;24.18;44.05;101970.50;5126593;27;20031;-71
2022/07/27 00:45:47;;;;;;;2.53;1.42;;;;;;;24.18;43.95;101966.00;5121522;27;20600;-71
2022/07/27 00:48:12;;;;;;;1.58;1.10;;;;;;;24.15;44.12;101969.03;5120208;27;20097;-71
2022/07/27 00:50:41;;;;;;;2.15;1.40;;;;;;;24.17;43.93;101974.16;5127822;27;20081;-71
2022/07/27 00:53:10;;;;;;;4.28;1.30;;;;;;;24.17;44.06;101969.66;5125235;27;20039;-71
2022/07/27 00:55:38;;;;;;;2.55;1.33;;;;;;;24.17;43.83;101972.31;5135235;27;20098;-71
2022/07/27 00:58:07;;;;;;;3.75;1.60;;;;;;;24.11;44.03;101970.41;5123503;27;20035;-71
2022/07/27 01:00:35;;;;;;;2.65;1.25;;;;;;;24.15;43.99;101965.53;5117405;27;20035;-72
2022/07/27 01:03:01;;;;;;;1.80;1.02;;;;;;;24.13;44.04;101964.88;5120844;27;20039;-71
2022/07/27 01:05:27;;;;;;;2.40;1.67;;;;;;;24.10;44.09;101966.09;5117560;27;20027;-71
2022/07/27 01:07:54;;;;;;;3.55;1.45;;;;;;;24.18;43.74;101975.81;5123991;27;20047;-71
2022/07/27 01:10:19;;;;;;;2.13;1.48;;;;;;;24.09;44.15;101972.41;5128874;27;20095;-71
2022/07/27 01:12:45;;;;;;;2.78;1.40;;;;;;;24.13;43.95;101973.69;5130028;27;20047;-71
2022/07/27 01:15:11;;;;;;;1.98;1.23;;;;;;;24.12;43.93;101974.72;5117680;27;20061;-71
2022/07/27 01:17:37;;;;;;;1.48;1.30;;;;;;;24.09;43.87;101975.91;5114459;27;20114;-71
2022/07/27 01:20:03;;;;;;;1.67;1.20;;;;;;;24.15;44.04;101981.50;5121262;27;20040;-71
2022/07/27 01:22:29;;;;;;;2.20;1.50;;;;;;;24.21;44.08;101983.44;5123506;27;20055;-71
2022/07/27 01:24:54;;;;;;;1.20;1.10;;;;;;;24.11;44.11;101981.88;5128015;27;20035;-71
2022/07/27 01:27:20;;;;;;;2.35;1.17;;;;;;;24.06;44.18;101978.94;5131396;27;20042;-71
2022/07/27 01:29:45;;;;;;;2.83;1.83;;;;;;;24.11;44.09;101973.06;5120163;27;20446;-71
2022/07/27 01:32:11;;;;;;;3.22;1.50;;;;;;;24.11;44.22;101973.06;5119655;27;20042;-72
2022/07/27 01:34:37;;;;;;;1.38;1.10;;;;;;;24.15;44.20;101974.34;5129967;27;20062;-71
2022/07/27 01:37:03;;;;;;;3.10;1.38;;;;;;;24.17;44.14;101977.66;5133707;27;20035;-71
2022/07/27 01:39:30;;;;;;;5.72;1.60;;;;;;;24.03;44.33;101965.13;5130416;27;20053;-71
2022/07/27 01:41:56;;;;;;;3.97;1.52;;;;;;;24.08;44.19;101966.28;5123007;27;20069;-71
2022/07/27 01:44:22;;;;;;;2.03;1.20;;;;;;;24.11;44.32;101963.25;5123996;27;20663;-71
2022/07/27 01:46:48;;;;;;;3.80;1.55;;;;;;;24.14;44.19;101966.53;5109897;27;20050;-71
2022/07/27 01:49:13;;;;;;;3.47;1.50;;;;;;;24.14;44.11;101970.03;5121094;27;20046;-71
2022/07/27 01:51:39;;;;;;;1.98;1.23;;;;;;;24.11;44.18;101962.41;5127871;27;21017;-71
2022/07/27 01:54:05;;;;;;;3.15;0.98;;;;;;;24.05;44.32;101965.78;5120731;27;20031;-71
2022/07/27 01:56:30;;;;;;;2.75;1.30;;;;;;;24.08;44.35;101968.09;5131844;27;20042;-71
2022/07/27 01:58:56;;;;;;;2.35;1.48;;;;;;;24.18;44.04;101959.84;5125935;27;20048;-71
2022/07/27 02:01:21;;;;;;;4.22;1.60;;;;;;;24.06;44.14;101962.97;5124466;27;20062;-71
2022/07/27 02:03:46;;;;;;;3.83;1.20;;;;;;;24.15;43.94;101965.53;5117419;27;20557;-71
2022/07/27 02:06:12;;;;;;;2.70;1.30;;;;;;;24.15;44.12;101965.53;5128138;27;20040;-71
2022/07/27 02:08:39;;;;;;;1.85;1.50;;;;;;;24.06;44.18;101959.47;5130751;27;20480;-71
2022/07/27 02:13:49;;;;;;;2.08;1.27;;;;;;;24.10;44.18;101955.44;5121665;27;20048;-71
2022/07/27 02:16:16;;;;;;;2.38;1.40;;;;;;;24.11;44.28;101957.09;5122828;27;20039;-71
2022/07/27 02:18:42;;;;;;;4.22;1.48;;;;;;;24.09;44.26;101954.63;5129026;27;20050;-71
2022/07/27 02:21:09;;;;;;;2.58;1.38;;;;;;;24.10;44.31;101947.47;5121398;27;20031;-71
2022/07/27 02:23:36;;;;;;;4.35;1.05;;;;;;;24.15;44.22;101963.69;5126367;27;20588;-71
2022/07/27 02:26:03;;;;;;;3.75;1.70;;;;;;;24.10;44.11;101955.44;5123171;27;20470;-71
2022/07/27 02:28:28;;;;;;;1.63;1.30;;;;;;;24.17;44.15;101950.22;5121113;27;20532;-71
2022/07/27 02:30:54;;;;;;;1.73;1.30;;;;;;;24.10;44.33;101950.13;5125719;27;20046;-71
2022/07/27 02:33:19;;;;;;;2.20;0.93;;;;;;;24.18;44.20;101959.84;5123073;27;20047;-70
2022/07/27 02:35:45;;;;;;;3.38;1.38;;;;;;;24.09;44.32;101951.13;5130770;27;20487;-71
2022/07/27 02:38:10;;;;;;;1.65;1.40;;;;;;;24.06;44.48;101951.50;5111039;27;20084;-71
2022/07/27 02:40:36;;;;;;;1.63;1.20;;;;;;;24.07;44.53;101955.81;5121934;27;20039;-71
2022/07/27 02:43:02;;;;;;;2.30;0.98;;;;;;;24.11;44.24;101959.75;5123993;27;20054;-71
2022/07/27 02:45:27;;;;;;;4.07;1.58;;;;;;;24.02;44.54;101958.16;5126198;27;20511;-71
2022/07/27 02:47:53;;;;;;;4.60;1.27;;;;;;;24.08;44.46;101954.81;5107954;27;20043;-71
2022/07/27 02:50:18;;;;;;;3.35;1.40;;;;;;;24.10;44.46;101956.25;5120004;27;20046;-72
2022/07/27 02:52:44;;;;;;;2.30;1.40;;;;;;;24.06;44.32;101957.63;5117197;27;20069;-71
2022/07/27 02:55:09;;;;;;;2.08;1.25;;;;;;;24.02;44.36;101958.16;5130237;27;20061;-71
2022/07/27 02:57:36;;;;;;;3.17;1.50;;;;;;;24.03;44.36;101955.31;5125164;27;20118;-71
2022/07/27 03:00:20;;;;;;;3.53;1.55;;;;;;;24.06;44.65;101957.63;5119906;27;20142;-71
2022/07/27 03:02:49;;;;;;;2.20;1.50;;;;;;;24.06;44.41;101957.63;5121945;27;20456;-72
2022/07/27 03:05:16;;;;;;;1.95;1.20;;;;;;;24.11;44.29;101952.59;5130784;27;20030;-71
2022/07/27 03:07:41;;;;;;;1.67;1.00;;;;;;;24.09;44.48;101956.44;5128760;27;20026;-71
2022/07/27 03:10:07;;;;;;;3.45;1.40;;;;;;;24.05;44.53;101961.28;5126515;27;20050;-71
2022/07/27 03:12:33;;;;;;;2.65;1.48;;;;;;;24.05;44.41;101955.13;5121997;27;20037;-71
2022/07/27 03:14:58;;;;;;;2.85;1.38;;;;;;;23.99;44.53;101959.34;5128915;27;20039;-71
2022/07/27 03:17:25;;;;;;;2.67;1.20;;;;;;;24.01;44.66;101957.34;5121045;27;20035;-71
2022/07/27 03:19:50;;;;;;;2.88;1.35;;;;;;;24.04;44.58;101958.81;5127756;27;20043;-71
2022/07/27 03:22:16;;;;;;;1.58;1.00;;;;;;;24.11;44.31;101949.09;5126901;27;20047;-71
2022/07/27 03:24:41;;;;;;;2.13;1.65;;;;;;;23.99;44.44;101958.53;5131687;27;20499;-71
2022/07/27 03:27:07;;;;;;;2.78;1.45;;;;;;;24.02;44.56;101956.31;5130389;27;20104;-71
2022/07/27 03:29:32;;;;;;;1.42;1.20;;;;;;;24.03;44.40;101960.63;5132047;27;20042;-71
2022/07/27 03:31:58;;;;;;;2.97;1.33;;;;;;;24.05;44.64;101955.13;5121719;27;20050;-72
2022/07/27 03:34:23;;;;;;;2.45;1.30;;;;;;;23.95;44.85;101963.38;5129951;27;20468;-71
2022/07/27 03:36:49;;;;;;;1.83;1.17;;;;;;;23.97;44.49;101963.19;5131489;27;20034;-71
2022/07/27 03:39:14;;;;;;;0.90;0.80;;;;;;;24.02;44.60;101960.81;5134031;27;20039;-72
2022/07/27 03:41:40;;;;;;;4.10;1.65;;;;;;;24.02;44.54;101963.47;5126988;27;20031;-72
2022/07/27 03:44:05;;;;;;;2.03;1.35;;;;;;;24.00;44.43;101957.50;5128083;27;20817;-71
2022/07/27 03:46:31;;;;;;;3.58;1.40;;;;;;;23.99;44.54;101972.66;5121873;27;20041;-71
2022/07/27 03:48:57;;;;;;;2.65;1.08;;;;;;;24.07;44.43;101969.13;5119665;27;20035;-71
2022/07/27 03:51:23;;;;;;;2.35;1.30;;;;;;;23.95;44.61;101970.53;5112985;27;20035;-71
2022/07/27 03:53:48;;;;;;;1.58;1.02;;;;;;;24.04;44.61;101964.13;5125188;27;20119;-72
2022/07/27 03:56:14;;;;;;;1.95;1.38;;;;;;;23.98;44.68;101964.84;5128187;27;20046;-72
2022/07/27 03:58:39;;;;;;;1.42;1.10;;;;;;;23.95;44.87;101970.53;5126623;27;20077;-72
2022/07/27 04:01:05;;;;;;;1.98;1.70;;;;;;;23.99;44.47;101967.34;5122867;27;20047;-72
2022/07/27 04:03:30;;;;;;;3.03;1.17;;;;;;;24.00;44.62;101976.13;5137626;27;20038;-71
2022/07/27 04:05:56;;;;;;;2.05;0.98;;;;;;;24.01;44.60;101970.63;5125724;27;21113;-71
2022/07/27 04:08:21;;;;;;;5.38;1.60;;;;;;;24.06;44.33;101968.28;5102105;27;20043;-71
2022/07/27 04:10:47;;;;;;;1.85;1.25;;;;;;;23.95;44.58;101968.72;5126605;27;20068;-71
2022/07/27 04:13:13;;;;;;;2.53;1.50;;;;;;;24.02;44.53;101964.31;5127182;27;20050;-71
2022/07/27 04:15:38;;;;;;;2.00;1.27;;;;;;;23.99;44.51;101972.66;5126146;27;20121;-71
2022/07/27 04:18:04;;;;;;;2.85;1.45;;;;;;;23.96;44.47;101970.34;5121816;27;20063;-71
2022/07/27 04:20:29;;;;;;;2.60;1.30;;;;;;;23.99;44.43;101977.16;5118211;27;20497;-71
2022/07/27 04:22:55;;;;;;;2.70;1.60;;;;;;;24.00;44.54;101976.97;5126437;27;20076;-71
2022/07/27 04:25:21;;;;;;;2.90;1.40;;;;;;;23.88;44.55;101974.91;5123081;27;20043;-70
2022/07/27 04:27:47;;;;;;;3.08;1.40;;;;;;;23.91;44.69;101972.75;5122123;27;20035;-71
2022/07/27 04:30:13;;;;;;;2.40;1.33;;;;;;;23.90;44.29;101976.41;5135641;27;20050;-71
2022/07/27 04:32:39;;;;;;;3.35;1.48;;;;;;;23.94;44.62;101976.88;5127809;27;20233;-72
2022/07/27 04:35:05;;;;;;;1.85;1.13;;;;;;;23.97;44.47;101976.50;5125692;27;20054;-71
2022/07/27 04:37:32;;;;;;;2.65;1.00;;;;;;;24.03;44.21;101981.91;5115750;27;20117;-71
2022/07/27 04:39:57;;;;;;;3.72;1.73;;;;;;;23.94;44.32;101984.84;5125740;27;20128;-71
2022/07/27 04:42:23;;;;;;;2.28;1.30;;;;;;;23.96;44.34;101988.16;5120452;27;20043;-71
2022/07/27 04:44:49;;;;;;;1.83;1.40;;;;;;;23.94;44.63;101985.69;5135692;27;20043;-71
2022/07/27 04:47:14;;;;;;;4.28;1.58;;;;;;;23.85;44.63;101981.41;5116341;27;20042;-71
2022/07/27 04:49:40;;;;;;;3.40;1.27;;;;;;;23.87;44.75;101986.56;5124775;27;20039;-72
2022/07/27 04:52:05;;;;;;;4.57;1.70;;;;;;;23.95;44.33;101989.16;5125192;27;20724;-71
2022/07/27 04:54:31;;;;;;;1.58;1.27;;;;;;;23.85;44.65;101985.91;5130658;27;20027;-71
2022/07/27 04:56:57;;;;;;;4.25;1.50;;;;;;;23.96;44.53;101994.31;5122493;27;20050;-71
2022/07/27 04:59:22;;;;;;;4.53;1.70;;;;;;;23.86;44.51;101993.72;5127421;27;20046;-71
2022/07/27 05:01:48;;;;;;;1.45;1.30;;;;;;;23.88;44.22;101999.69;5124897;27;20043;-70
2022/07/27 05:04:13;;;;;;;2.63;1.40;;;;;;;23.97;44.23;101995.13;5121749;27;20057;-71
2022/07/27 05:06:39;;;;;;;3.75;1.83;;;;;;;23.83;44.49;102003.88;5119726;27;20457;-71
2022/07/27 05:09:04;;;;;;;3.47;1.33;;;;;;;23.89;44.38;102006.69;5128997;27;20069;-71
2022/07/27 05:11:30;;;;;;;2.05;1.63;;;;;;;23.93;44.36;102007.13;5132836;27;20034;-71
2022/07/27 05:13:55;;;;;;;3.17;1.73;;;;;;;23.88;44.40;101999.69;5107801;27;21894;-71
2022/07/27 05:16:21;;;;;;;3.72;1.63;;;;;;;23.85;44.47;102023.16;5121064;27;20043;-71
2022/07/27 05:18:46;;;;;;;3.33;1.30;;;;;;;23.86;44.32;102014.97;5118843;27;20043;-71
2022/07/27 05:21:12;;;;;;;1.73;1.50;;;;;;;23.87;44.22;102019.31;5132091;27;20027;-71
2022/07/27 05:23:38;;;;;;;1.98;1.35;;;;;;;23.88;44.04;102020.13;5129994;27;20628;-71
2022/07/27 05:26:03;;;;;;;1.90;1.20;;;;;;;23.92;44.14;102027.59;5126880;27;21344;-71
2022/07/27 05:28:29;;;;;;;1.88;1.17;;;;;;;23.86;44.22;102027.47;5124320;27;20042;-71
2022/07/27 05:30:55;;;;;;;2.97;1.48;;;;;;;23.95;43.70;102026.41;5119326;27;20384;-71
2022/07/27 05:33:21;;;;;;;2.67;1.60;;;;;;;23.86;44.38;102030.13;5120198;27;20053;-71
2022/07/27 05:35:46;;;;;;;2.83;1.25;;;;;;;23.85;44.27;102033.78;5114292;27;20034;-71
2022/07/27 05:38:11;;;;;;;3.80;2.17;;;;;;;23.84;44.10;102035.63;5111812;27;20042;-71
2022/07/27 05:40:37;;;;;;;2.28;1.05;;;;;;;23.86;44.08;102040.75;5127428;27;20042;-71
2022/07/27 05:43:03;;;;;;;4.13;1.63;;;;;;;23.94;43.95;102038.06;5109014;27;20472;-71
2022/07/27 05:45:28;;;;;;;2.45;1.40;;;;;;;23.90;43.83;102034.09;5130323;27;20073;-71
2022/07/27 05:47:53;;;;;;;3.58;1.40;;;;;;;23.93;44.00;102049.72;5119762;27;20757;-71
2022/07/27 05:50:19;;;;;;;3.83;1.65;;;;;;;23.83;44.07;102049.94;5118099;27;20037;-71
2022/07/27 05:52:45;;;;;;;4.50;1.70;;;;;;;23.87;44.19;102050.41;5118139;27;20043;-71
2022/07/27 05:55:11;;;;;;;2.95;1.50;;;;;;;23.87;44.04;102042.41;5132824;27;20038;-71
2022/07/27 05:57:37;;;;;;;3.67;1.65;;;;;;;23.77;43.94;102048.81;5116028;27;20053;-71
2022/07/27 06:00:05;;;;;;;3.58;1.60;;;;;;;23.85;43.94;102055.06;5118484;27;20047;-71
2022/07/27 06:02:37;;;;;;;3.88;1.80;;;;;;;23.83;44.24;102063.22;5121852;27;20509;-71
2022/07/27 06:05:04;;;;;;;2.33;1.67;;;;;;;23.88;43.89;102065.34;5123915;27;20032;-71
2022/07/27 06:10:13;;;;;;;2.72;1.40;;;;;;;23.92;43.97;102066.69;5130819;27;20054;-71
2022/07/27 06:12:41;;;;;;;4.32;1.40;;;;;;;23.86;43.82;102068.19;5123024;27;20043;-71
2022/07/27 06:15:08;;;;;;;2.80;1.48;;;;;;;23.80;44.35;102067.06;5115794;27;20062;-71
2022/07/27 06:17:35;;;;;;;2.08;1.45;;;;;;;23.80;44.41;102066.25;5117604;27;20031;-71
2022/07/27 06:20:05;;;;;;;3.38;1.52;;;;;;;23.78;44.59;102065.59;5126626;27;20027;-71
2022/07/27 06:22:31;;;;;;;2.47;1.70;;;;;;;23.81;44.75;102060.75;5129800;27;20031;-71
2022/07/27 06:24:57;;;;;;;3.38;1.45;;;;;;;23.86;44.84;102067.38;5113925;27;20113;-71
2022/07/27 06:27:23;;;;;;;1.20;1.08;;;;;;;23.91;44.54;102070.34;5111167;27;20039;-71
2022/07/27 06:29:48;;;;;;;2.70;1.30;;;;;;;23.85;44.61;102066.53;5108612;27;20046;-71
2022/07/27 06:32:14;;;;;;;3.72;1.40;;;;;;;23.85;44.59;102069.19;5111177;27;20035;-71
2022/07/27 06:34:40;;;;;;;1.98;1.40;;;;;;;23.85;44.83;102077.19;5111942;27;20035;-71
2022/07/27 06:37:05;;;;;;;2.25;1.50;;;;;;;23.86;44.87;102081.50;5107945;27;20042;-71
2022/07/27 06:39:31;;;;;;;2.83;1.15;;;;;;;23.86;44.53;102076.16;5113124;27;20050;-71
2022/07/27 06:41:56;;;;;;;2.78;1.42;;;;;;;23.93;44.28;102068.34;5114107;27;20906;-72
2022/07/27 06:44:22;;;;;;;2.97;1.40;;;;;;;23.86;44.73;102065.53;5118495;27;20039;-71
2022/07/27 06:46:47;;;;;;;6.03;1.80;;;;;;;23.86;44.53;102060.22;5122979;27;20046;-71
2022/07/27 06:49:13;;;;;;;4.38;1.52;;;;;;;23.84;44.40;102062.22;5125359;27;20074;-71
2022/07/27 06:51:39;;;;;;;4.00;1.58;;;;;;;23.93;44.24;102065.66;5122938;27;20039;-71
2022/07/27 06:54:04;;;;;;;1.75;1.50;;;;;;;23.86;44.33;102056.72;5101769;27;20046;-71
2022/07/27 06:56:30;;;;;;;4.35;1.50;;;;;;;23.90;44.61;102063.38;5128040;27;20046;-71
2022/07/27 06:58:56;;;;;;;3.17;1.58;;;;;;;23.97;44.40;102067.78;5101238;27;20050;-71
2022/07/27 07:01:21;;;;;;;3.10;1.33;;;;;;;23.89;44.64;102067.03;5123940;27;22158;-71
2022/07/27 07:03:47;;;;;;;3.45;1.63;;;;;;;23.94;44.36;102068.16;5133777;27;20539;-71
2022/07/27 07:06:12;;;;;;;2.17;1.38;;;;;;;23.95;44.51;102074.28;5127622;27;20556;-71
2022/07/27 07:08:38;;;;;;;3.97;1.40;;;;;;;23.95;44.62;102071.63;5120192;27;20083;-71
2022/07/27 07:11:04;;;;;;;3.10;1.38;;;;;;;23.91;44.60;102068.50;5110831;27;20030;-71
2022/07/27 07:13:29;;;;;;;4.03;1.80;;;;;;;24.05;44.18;102072.22;5127543;27;20034;-71
2022/07/27 07:15:55;;;;;;;5.40;1.77;;;;;;;23.98;44.60;102077.44;5108385;27;20074;-71
2022/07/27 07:18:21;;;;;;;2.40;1.55;;;;;;;24.09;44.09;102071.69;5123569;27;20042;-71
2022/07/27 07:20:46;;;;;;;2.88;1.75;;;;;;;24.05;44.17;102080.19;5108257;27;20512;-71
2022/07/27 07:23:12;;;;;;;3.63;1.60;;;;;;;24.08;44.09;102077.19;5121643;27;20055;-71
2022/07/27 07:25:39;;;;;;;2.53;1.48;;;;;;;24.10;43.97;102077.84;5120384;27;20050;-71
2022/07/27 07:28:06;;;;;;;2.65;1.60;;;;;;;24.32;43.17;102077.03;5132372;27;20430;-71
2022/07/27 07:30:32;;;;;;;5.28;1.23;;;;;;;24.43;42.81;102073.13;5131484;27;20084;-70
2022/07/27 07:32:57;;;;;;;4.13;1.35;;;;;;;24.15;42.55;102075.47;5125760;27;20540;-70
2022/07/27 07:35:23;;;;;;;5.47;1.95;;;;;;;24.05;42.80;102073.03;5125666;27;20096;-74
2022/07/27 07:37:49;;;;;;;6.50;1.95;;;;;;;23.93;42.87;102071.81;5117983;27;20027;-73
2022/07/27 07:40:14;;;;;;;5.40;2.30;;;;;;;23.99;42.98;102081.75;5121568;27;20036;-74
2022/07/27 07:42:55;;;;;;;4.00;1.63;;;;;;;24.05;42.91;102080.19;5126653;27;20498;-73
2022/07/27 07:45:23;;;;;;;4.50;1.25;;;;;;;24.16;43.11;102078.97;5124791;27;21750;-72
2022/07/27 07:47:50;;;;;;;6.95;1.55;;;;;;;24.16;43.03;102065.66;5124851;27;20122;-72
2022/07/27 07:50:15;;;;;;;6.82;1.80;;;;;;;24.07;43.26;102072.88;5124527;27;20046;-73
2022/07/27 07:52:41;;;;;;;5.13;2.05;;;;;;;24.11;43.42;102080.34;5118563;27;20035;-73
2022/07/27 07:55:07;;;;;;;6.18;1.67;;;;;;;24.02;43.37;102080.56;5120148;27;20444;-73
2022/07/27 07:57:33;;;;;;;5.47;1.77;;;;;;;24.19;43.05;102078.59;5123301;27;20023;-72
2022/07/27 07:59:58;;;;;;;5.20;1.88;;;;;;;24.29;42.80;102081.88;5111457;27;20034;-72
2022/07/27 08:02:24;;;;;;;4.65;1.48;;;;;;;24.11;43.07;102077.66;5120388;27;20023;-72
2022/07/27 08:04:49;;;;;;;5.70;1.77;;;;;;;24.09;42.96;102082.34;5114330;27;20035;-72
2022/07/27 08:07:15;;;;;;;3.30;1.80;;;;;;;24.38;42.24;102094.94;5119573;27;20934;-72
2022/07/27 08:09:41;;;;;;;8.18;2.20;;;;;;;24.46;41.35;102101.22;5121656;27;20046;-72
2022/07/27 08:12:06;;;;;;;4.35;1.60;;;;;;;24.27;41.69;102100.66;5118471;27;20098;-72
2022/07/27 08:14:32;;;;;;;5.70;1.70;;;;;;;24.20;42.24;102105.03;5110828;27;20589;-73
2022/07/27 08:16:58;;;;;;;4.18;1.73;;;;;;;24.24;42.32;102111.69;5123620;27;20035;-72
2022/07/27 08:19:23;;;;;;;6.80;2.00;;;;;;;24.29;42.39;102106.69;5131410;27;20045;-72
2022/07/27 08:21:49;;;;;;;9.20;2.03;;;;;;;24.27;42.57;102102.50;5118797;27;20035;-71
2022/07/27 08:24:15;;;;;;;6.03;1.92;;;;;;;24.32;42.74;102108.16;5123155;27;20055;-71
2022/07/27 08:26:40;;;;;;;3.53;1.48;;;;;;;24.29;43.05;102113.84;5119060;27;20031;-70
2022/07/27 08:29:06;;;;;;;5.03;1.55;;;;;;;24.36;42.93;102117.44;5107013;27;20028;-71
2022/07/27 08:31:31;;;;;;;5.32;1.85;;;;;;;24.33;43.01;102118.63;5125286;27;20039;-71
2022/07/27 08:33:57;;;;;;;3.72;2.13;;;;;;;24.32;43.01;102118.78;5113709;27;20047;-71
2022/07/27 08:36:22;;;;;;;5.43;1.83;;;;;;;24.34;42.99;102117.59;5129741;27;20405;-71
2022/07/27 08:38:48;;;;;;;4.82;1.85;;;;;;;24.35;42.48;102116.59;5127491;27;20504;-71
2022/07/27 08:41:16;;;;;;;4.43;1.70;;;;;;;24.34;42.93;102119.44;5125198;27;20034;-71
2022/07/27 08:43:44;;;;;;;3.47;1.60;;;;;;;24.26;43.13;102120.31;5130880;27;20050;-71
2022/07/27 08:46:10;;;;;;;4.65;1.77;;;;;;;24.35;43.38;102131.75;5127406;27;20039;-71
2022/07/27 08:48:38;;;;;;;6.85;1.60;;;;;;;24.34;43.67;102130.09;5107622;27;20055;-71
2022/07/27 08:51:06;;;;;;;3.22;1.77;;;;;;;24.34;43.77;102136.25;5122291;27;20396;-71
2022/07/27 08:53:33;;;;;;;2.80;1.50;;;;;;;24.33;43.83;102131.09;5115427;27;20548;-70
2022/07/27 08:55:58;;;;;;;3.40;1.70;;;;;;;24.35;43.64;102129.91;5124905;27;20305;-71
2022/07/27 08:58:24;;;;;;;4.38;1.73;;;;;;;24.35;43.48;102132.56;5129075;27;20034;-72
2022/07/27 09:00:49;;;;;;;3.88;2.08;;;;;;;24.27;43.49;102132.63;5125351;27;20058;-71
2022/07/27 09:03:17;;;;;;;4.32;1.60;;;;;;;24.34;43.45;102128.25;5126105;27;20038;-71
2022/07/27 09:05:43;;;;;;;3.47;1.98;;;;;;;24.36;43.33;102136.88;5124151;27;20080;-75
2022/07/27 09:08:15;;;;;;;7.63;2.05;;;;;;;24.61;42.82;102132.22;5121686;27;20134;-73
2022/07/27 09:10:40;;;;;;;5.95;1.95;;;;;;;24.79;42.54;102136.38;5064471;27;20103;-71
2022/07/27 09:13:25;;;;;;;3.03;1.55;;;;;;;24.88;42.14;102136.09;5123917;27;20027;-75
2022/07/27 09:15:56;;;;;;;4.90;1.63;;;;;;;25.02;41.91;102134.50;5128249;27;20034;-69
2022/07/27 09:18:24;;;;;;;4.45;1.77;;;;;;;25.16;41.77;102130.19;5120569;27;20038;-69
2022/07/27 09:21:10;;;;;;;4.40;2.15;;;;;;;25.15;41.73;102129.38;5105739;27;20055;-72
2022/07/27 09:23:40;;;;;;;9.20;1.80;;;;;;;25.24;41.34;102122.09;5114728;27;20436;-73
2022/07/27 09:26:12;;;;;;;3.03;1.60;;;;;;;25.27;41.04;102121.72;5103961;27;20549;-71
2022/07/27 09:28:38;;;;;;;3.10;1.67;;;;;;;25.30;40.73;102122.16;5124406;27;20046;-70
2022/07/27 09:31:08;;;;;;;2.97;1.63;;;;;;;25.32;40.52;102121.19;5130835;27;20027;-78
2022/07/27 09:34:01;;;;;;;2.97;1.58;;;;;;;25.36;40.23;102122.44;5110992;27;20035;-71
2022/07/27 09:36:28;;;;;;;4.80;2.08;;;;;;;25.34;40.06;102130.63;5119452;27;20066;-69
2022/07/27 09:38:57;;;;;;;5.57;1.73;;;;;;;25.27;40.07;102127.03;5111054;27;20031;-69
2022/07/27 09:41:23;;;;;;;6.47;2.03;;;;;;;25.22;40.71;102118.78;5108499;27;20189;-72
2022/07/27 09:43:54;;;;;;;2.90;1.70;;;;;;;25.21;40.52;102119.78;5116506;27;20124;-70
2022/07/27 09:46:34;;;;;;;2.47;1.42;;;;;;;25.25;40.52;102123.72;5094623;27;20031;-68
2022/07/27 09:49:01;;;;;;;6.00;2.25;;;;;;;25.29;40.40;102127.69;5123914;27;20039;-70
2022/07/27 09:51:29;;;;;;;5.07;1.40;;;;;;;25.25;39.98;102124.56;5126548;27;21641;-69
2022/07/27 09:53:56;;;;;;;3.65;1.70;;;;;;;25.27;40.18;102121.72;5123817;27;20036;-67
2022/07/27 09:56:30;;;;;;;5.53;1.77;;;;;;;25.25;40.27;102111.22;5127004;27;20473;-76
2022/07/27 09:59:01;;;;;;;5.43;1.80;;;;;;;25.28;40.34;102123.34;5074578;27;20038;-72
2022/07/27 10:01:33;;;;;;;3.85;1.77;;;;;;;25.26;40.16;102123.56;5117848;27;20058;-70
2022/07/27 10:04:03;;;;;;;2.30;1.60;;;;;;;25.27;40.13;102125.19;5124942;27;20042;-71
2022/07/27 10:06:28;;;;;;;5.65;1.58;;;;;;;25.32;39.60;102121.19;5123033;27;20099;-72
2022/07/27 10:08:56;;;;;;;3.88;1.63;;;;;;;25.32;39.57;102123.84;5116856;27;20038;-67
2022/07/27 10:11:23;;;;;;;4.28;1.70;;;;;;;25.35;39.07;102126.13;5128495;27;20043;-72
2022/07/27 10:13:51;;;;;;;5.18;1.92;;;;;;;25.35;39.23;102124.28;5114501;27;20123;-69
2022/07/27 10:16:19;;;;;;;3.28;1.60;;;;;;;25.36;38.99;102123.28;5100361;27;20030;-70
2022/07/27 10:18:58;;;;;;;2.55;1.30;;;;;;;25.37;39.01;102122.28;5122786;27;20039;-73
2022/07/27 10:21:24;;;;;;;3.50;1.52;;;;;;;25.37;39.25;102122.28;5116434;27;20034;-73
2022/07/27 10:24:11;;;;;;;3.63;1.77;;;;;;;25.37;40.08;102127.59;5116557;27;20099;-73
2022/07/27 10:26:39;;;;;;;4.45;1.75;;;;;;;25.51;40.11;102120.59;5124544;27;20031;-73
2022/07/27 10:29:16;;;;;;;3.63;2.03;;;;;;;25.57;39.88;102126.00;5108669;27;20051;-69
2022/07/27 10:31:54;;;;;;;4.22;1.90;;;;;;;25.65;39.67;102119.72;5115581;27;20142;-74
2022/07/27 10:34:36;;;;;;;2.13;1.45;;;;;;;25.68;39.79;102123.91;5120003;27;20097;-69
2022/07/27 10:37:12;;;;;;;3.25;1.50;;;;;;;25.69;39.86;102123.72;5116106;27;20377;-70
2022/07/27 10:39:49;;;;;;;6.63;1.98;;;;;;;25.71;39.97;102124.34;5124059;27;20065;-73
2022/07/27 10:42:21;;;;;;;3.08;1.60;;;;;;;25.74;39.74;102121.31;5119072;27;20114;-69
2022/07/27 10:45:06;;;;;;;4.00;1.80;;;;;;;25.79;40.12;102126.06;5122925;27;20043;-75
2022/07/27 10:47:38;;;;;;;3.15;1.65;;;;;;;25.81;40.11;102134.72;5114476;27;20027;-76
2022/07/27 10:50:16;;;;;;;3.33;1.70;;;;;;;25.84;40.02;102131.66;5110441;27;20043;-76
2022/07/27 10:52:54;;;;;;;4.70;2.03;;;;;;;25.84;40.11;102132.50;5113678;27;20035;-74
2022/07/27 10:55:28;;;;;;;4.93;1.92;;;;;;;25.92;39.95;102130.75;5124406;27;20035;-69
2022/07/27 10:58:06;;;;;;;4.28;1.77;;;;;;;25.88;40.18;102130.28;5114863;27;20088;-76
2022/07/27 11:00:47;;;;;;;3.83;1.60;;;;;;;25.92;39.83;102133.41;5124684;27;20049;-74
2022/07/27 11:03:22;;;;;;;2.70;1.33;;;;;;;25.94;39.97;102139.38;5104047;27;20088;-71
2022/07/27 11:05:59;;;;;;;4.18;1.80;;;;;;;25.94;40.34;102139.38;5106698;27;20126;-71
2022/07/27 11:08:26;;;;;;;2.30;1.45;;;;;;;25.90;38.73;102141.59;5097688;27;20054;-73
2022/07/27 11:10:51;;;;;;;3.97;1.52;;;;;;;25.74;38.32;102139.16;5125160;27;20049;-73
2022/07/27 11:13:22;;;;;;;2.20;1.85;;;;;;;25.85;37.23;102133.31;5112701;27;20444;-74
2022/07/27 11:15:57;;;;;;;3.38;1.63;;;;;;;25.82;36.92;102137.19;5124431;27;20057;-78
2022/07/27 11:18:31;;;;;;;3.60;1.55;;;;;;;25.76;36.90;102121.13;5121232;27;20034;-76
2022/07/27 11:21:17;;;;;;;3.35;1.60;;;;;;;25.74;36.90;102125.81;5095379;27;20043;-77
2022/07/27 11:23:44;;;;;;;2.05;1.42;;;;;;;25.76;36.70;102127.28;5122975;27;20035;-76
2022/07/27 11:26:11;;;;;;;4.20;1.33;;;;;;;25.74;36.91;102128.50;5127887;27;20046;-74
2022/07/27 11:28:37;;;;;;;2.92;1.60;;;;;;;25.53;37.24;102126.56;5124205;27;20062;-71
2022/07/27 11:31:05;;;;;;;2.83;1.63;;;;;;;25.57;36.99;102127.84;5124102;27;20057;-70